We Are Vancouver.

Screenshot by Kevin Goarley

Come explore the left of Canada.  

  Recent News


  Upcoming Events

Davis Bartley's S2 OTS  February 25, 2024 19:00z

  Top Controllers this Month

Adam Krichbaum 1694858
38:12

Brad Crockett 921002
28:34

Rocky Bozak 1554483
20:11

Greg Rinsma 1697777
19:21

Alexander Jonsson 1177383
19:09

  Online Controllers

No controllers online.

  Weather

CYVR - Vancouver International Airport   VFR
CYVR 241200Z 24007KT 10SM FEW020 FEW041 BKN048 OVC100 07/07 A3013 RMK SC1SC1SC3AS3 MOON DIMLY VISBL SLP204

CYYJ - Victoria International Airport   VFR
CYYJ 241200Z 17004KT 20SM FEW062 SCT083 BKN100 OVC120 07/07 A3014 RMK SC1AC2AC4AC1 SLP208

CYLW - Kelowna International Airport   VFR
CYLW 241200Z AUTO 19008KT 140V240 9SM FEW060 OVC099 06/01 A2995 RMK SLP150

CYXS - Prince George Airport   VFR
CYXS 241200Z AUTO 21010KT 9SM OVC081 M00/M08 A2986 RMK SLP145

CYXX - Abbotsford International Airport   VFR
CYXX 241200Z 19008KT 13SM BKN045 OVC055 07/06 A3013 RMK SC6SC2 SLP206

CYQQ - Comox Valley Airport / CFB Comox   VFR
CYQQ 241200Z CCA 32003KT 20SM -RA OVC063 06/05 A3013 RMK SC8 DENSITY ALT -1094FT PCPN VRY LGT SLP205